Time;durP1;ratioP1;P1;durP2;ratioP2;P2;SDS_P1;SDS_P2;PMS_P1;PMS_P2;Temp;Humidity;BMP_temperature;BMP_pressure;BME280_temperature;BME280_humidity;BME280_pressure;Samples;Min_cycle;Max_cycle;Signal;HPM_P1;HPM_P2
2023/09/29 00:00:17;;;;;;;20.85;6.90;;;16.10;99.90;;;;;;6127080;23;20369;-92
2023/09/29 00:02:45;;;;;;;22.85;7.20;;;15.80;99.90;;;;;;6151235;23;20370;-92
2023/09/29 00:05:11;;;;;;;23.67;7.30;;;15.80;99.90;;;;;;6127236;23;20444;-92
2023/09/29 00:07:37;;;;;;;19.75;7.03;;;16.10;99.90;;;;;;6126685;23;20461;-93
2023/09/29 00:10:08;;;;;;;18.70;6.55;;;16.20;99.90;;;;;;6151966;23;20393;-94
2023/09/29 00:12:37;;;;;;;21.73;7.38;;;15.80;99.90;;;;;;6151002;23;20362;-92
2023/09/29 00:15:06;;;;;;;24.30;6.70;;;16.20;99.90;;;;;;6151024;23;20397;-93
2023/09/29 00:17:32;;;;;;;18.42;6.22;;;15.90;99.90;;;;;;6151544;23;20432;-94
2023/09/29 00:19:59;;;;;;;18.23;6.28;;;15.90;99.90;;;;;;6126641;23;20397;-93
2023/09/29 00:22:25;;;;;;;18.58;6.18;;;16.20;99.90;;;;;;6152264;23;20361;-94
2023/09/29 00:24:51;;;;;;;17.20;5.78;;;16.20;99.90;;;;;;6151816;23;20370;-93
2023/09/29 00:27:17;;;;;;;18.07;5.80;;;16.00;99.90;;;;;;6151413;23;20921;-95
2023/09/29 00:29:42;;;;;;;19.02;5.90;;;16.30;99.90;;;;;;6151081;23;20404;-94
2023/09/29 00:32:09;;;;;;;16.27;5.83;;;16.00;99.90;;;;;;6151502;23;20826;-93
2023/09/29 00:34:36;;;;;;;18.75;5.75;;;16.00;99.90;;;;;;6151774;23;20948;-93
2023/09/29 00:37:02;;;;;;;19.08;5.57;;;16.20;99.90;;;;;;6150827;23;20369;-93
2023/09/29 00:39:28;;;;;;;15.13;5.03;;;15.80;99.90;;;;;;6152293;23;20369;-92
2023/09/29 00:41:53;;;;;;;17.57;5.20;;;15.90;99.90;;;;;;6150740;23;20527;-94
2023/09/29 00:44:19;;;;;;;17.87;5.30;;;16.20;99.90;;;;;;6151734;23;20377;-93
2023/09/29 00:46:45;;;;;;;18.10;4.93;;;16.20;99.90;;;;;;6151448;23;20376;-93
2023/09/29 00:49:13;;;;;;;18.83;4.80;;;15.90;99.90;;;;;;6151376;23;20460;-93
2023/09/29 00:51:39;;;;;;;19.27;5.40;;;15.90;99.90;;;;;;6151633;23;20369;-91
2023/09/29 00:54:08;;;;;;;19.83;5.43;;;16.40;99.90;;;;;;6150920;23;20378;-94
2023/09/29 00:56:39;;;;;;;13.25;4.13;;;15.90;99.90;;;;;;6151631;23;20365;-92
2023/09/29 00:59:07;;;;;;;15.57;5.15;;;15.90;99.90;;;;;;6150356;23;20381;-93
2023/09/29 01:01:35;;;;;;;15.32;4.53;;;16.30;99.90;;;;;;6127243;23;20376;-95
2023/09/29 01:04:00;;;;;;;16.60;5.00;;;15.90;99.90;;;;;;6127022;23;20707;-93
2023/09/29 01:06:29;;;;;;;15.00;4.20;;;16.00;99.90;;;;;;6150788;23;20850;-92
2023/09/29 01:08:59;;;;;;;17.20;4.75;;;15.90;99.90;;;;;;6151095;23;20830;-93
2023/09/29 01:11:25;;;;;;;17.50;4.53;;;15.90;99.90;;;;;;6126371;23;20400;-93
2023/09/29 01:13:51;;;;;;;14.23;4.43;;;16.10;99.90;;;;;;6151785;23;20377;-92
2023/09/29 01:16:17;;;;;;;15.68;4.30;;;15.90;99.90;;;;;;6151914;23;20381;-93
2023/09/29 01:18:43;;;;;;;16.48;4.45;;;15.70;99.90;;;;;;6153458;23;20404;-93
2023/09/29 01:21:09;;;;;;;16.67;4.25;;;16.00;99.90;;;;;;6152664;23;20393;-92
2023/09/29 01:23:34;;;;;;;15.47;3.83;;;16.20;99.90;;;;;;6153415;23;20401;-93
2023/09/29 01:26:02;;;;;;;16.40;4.20;;;16.10;99.90;;;;;;6153024;23;20703;-94
2023/09/29 01:28:29;;;;;;;15.43;4.40;;;16.20;99.90;;;;;;6152530;23;20367;-93
2023/09/29 01:30:55;;;;;;;15.90;4.10;;;15.90;99.90;;;;;;6128410;23;20477;-93
2023/09/29 01:33:23;;;;;;;14.02;3.92;;;16.30;99.90;;;;;;6152171;23;20858;-93
2023/09/29 01:35:50;;;;;;;13.75;3.47;;;15.90;99.90;;;;;;6153398;23;20374;-94
2023/09/29 01:38:16;;;;;;;15.73;4.55;;;15.90;99.90;;;;;;6152565;23;20382;-92
2023/09/29 01:40:44;;;;;;;13.83;4.00;;;16.30;99.90;;;;;;6152735;23;20380;-93
2023/09/29 01:43:10;;;;;;;15.43;4.70;;;16.30;99.90;;;;;;6152640;23;20378;-92
2023/09/29 01:45:38;;;;;;;14.80;4.10;;;16.70;99.90;;;;;;6127562;23;20369;-93
2023/09/29 01:48:04;;;;;;;15.38;4.28;;;16.30;99.90;;;;;;6152837;23;20462;-94
2023/09/29 01:50:33;;;;;;;17.37;5.00;;;16.00;99.90;;;;;;6152029;23;20393;-93
2023/09/29 01:52:59;;;;;;;14.93;4.43;;;16.30;99.90;;;;;;6152852;23;20374;-94
2023/09/29 01:55:24;;;;;;;20.17;4.22;;;16.00;99.90;;;;;;6152303;23;20361;-94
2023/09/29 01:57:54;;;;;;;13.87;3.87;;;16.10;99.90;;;;;;6152821;23;20409;-92
2023/09/29 02:00:22;;;;;;;13.97;4.00;;;16.20;99.90;;;;;;6152687;23;20453;-92
2023/09/29 02:02:48;;;;;;;16.13;4.37;;;16.10;99.90;;;;;;6151802;23;20405;-94
2023/09/29 02:05:16;;;;;;;19.08;4.53;;;16.50;99.90;;;;;;6152339;23;20429;-92
2023/09/29 02:07:45;;;;;;;16.38;4.75;;;16.50;99.90;;;;;;6151348;23;20362;-93
2023/09/29 02:10:11;;;;;;;17.73;4.80;;;16.60;99.90;;;;;;6152551;23;20393;-93
2023/09/29 02:12:47;;;;;;;15.63;4.72;;;16.20;99.90;;;;;;6127397;23;20456;-93
2023/09/29 02:15:17;;;;;;;17.70;4.30;;;16.30;99.90;;;;;;6152224;23;20391;-94
2023/09/29 02:17:48;;;;;;;12.68;4.10;;;16.20;99.90;;;;;;6127462;23;20389;-93
2023/09/29 02:20:18;;;;;;;15.30;4.27;;;16.20;99.90;;;;;;6127117;23;20382;-94
2023/09/29 02:22:45;;;;;;;16.65;4.57;;;16.70;99.90;;;;;;6127760;23;20489;-93
2023/09/29 02:25:14;;;;;;;16.67;4.43;;;16.50;99.90;;;;;;6127212;23;20444;-93
2023/09/29 02:27:40;;;;;;;16.08;5.00;;;16.20;99.90;;;;;;6152707;23;20369;-92
2023/09/29 02:30:09;;;;;;;15.20;4.55;;;16.20;99.90;;;;;;6151947;23;20393;-93
2023/09/29 02:32:39;;;;;;;16.77;4.93;;;16.20;99.90;;;;;;6152055;23;20476;-93
2023/09/29 02:35:05;;;;;;;16.13;4.30;;;16.40;99.90;;;;;;6152342;23;20854;-92
2023/09/29 02:37:31;;;;;;;16.13;4.57;;;16.20;99.90;;;;;;6152207;23;20908;-93
2023/09/29 02:39:58;;;;;;;15.63;4.53;;;16.20;99.90;;;;;;6152289;23;20369;-95
2023/09/29 02:42:24;;;;;;;15.60;4.68;;;16.20;99.90;;;;;;6153859;23;20846;-94
2023/09/29 02:44:49;;;;;;;14.30;4.57;;;16.70;99.90;;;;;;6152336;23;20376;-94
2023/09/29 02:47:15;;;;;;;14.93;4.43;;;16.20;99.90;;;;;;6152083;23;20830;-93
2023/09/29 02:49:41;;;;;;;16.80;4.67;;;16.70;99.90;;;;;;6152316;23;20401;-93
2023/09/29 02:52:07;;;;;;;15.02;4.60;;;16.20;99.90;;;;;;6152162;23;20388;-94
2023/09/29 02:54:32;;;;;;;15.40;4.60;;;16.10;99.90;;;;;;6152242;23;20380;-94
2023/09/29 02:56:58;;;;;;;16.60;4.73;;;16.40;99.90;;;;;;6151461;23;20399;-93
2023/09/29 02:59:24;;;;;;;13.95;4.57;;;16.50;99.90;;;;;;6151358;23;20394;-93
2023/09/29 03:01:52;;;;;;;16.27;4.55;;;16.40;99.90;;;;;;6152078;23;20373;-93
2023/09/29 03:04:19;;;;;;;14.85;4.43;;;16.50;99.90;;;;;;6151368;23;20369;-94
2023/09/29 03:06:45;;;;;;;14.05;4.30;;;16.60;99.90;;;;;;6152183;23;20759;-94
2023/09/29 03:09:13;;;;;;;18.35;4.63;;;16.70;99.90;;;;;;6151478;23;20369;-92
2023/09/29 03:11:40;;;;;;;16.60;4.55;;;16.60;99.90;;;;;;6152069;23;20370;-93
2023/09/29 03:14:06;;;;;;;16.27;4.32;;;16.40;99.90;;;;;;6151389;23;20930;-92
2023/09/29 03:16:34;;;;;;;15.32;4.22;;;16.50;99.90;;;;;;6150986;23;20378;-92
2023/09/29 03:19:00;;;;;;;13.77;3.72;;;16.20;99.90;;;;;;6127081;23;20858;-93
2023/09/29 03:21:25;;;;;;;15.55;3.95;;;16.20;99.90;;;;;;6126939;23;20374;-92
2023/09/29 03:23:51;;;;;;;15.40;4.37;;;16.50;99.90;;;;;;6152164;23;20369;-93
2023/09/29 03:26:26;;;;;;;16.65;4.07;;;16.30;99.90;;;;;;6151338;23;20405;-91
2023/09/29 03:28:54;;;;;;;15.27;3.70;;;16.30;99.90;;;;;;6151727;23;20377;-92
2023/09/29 03:31:22;;;;;;;13.40;3.75;;;16.80;99.90;;;;;;6151700;23;20393;-94
2023/09/29 03:33:48;;;;;;;13.63;3.47;;;16.50;99.90;;;;;;6126593;23;20436;-93
2023/09/29 03:36:14;;;;;;;14.57;3.35;;;16.30;99.90;;;;;;6151676;23;20876;-93
2023/09/29 03:38:41;;;;;;;16.20;4.18;;;16.60;99.90;;;;;;6150628;23;20400;-94
2023/09/29 03:41:09;;;;;;;12.13;3.42;;;16.60;99.90;;;;;;6151754;23;20418;-93
2023/09/29 03:43:35;;;;;;;12.38;3.42;;;17.00;99.90;;;;;;6151005;23;20365;-93
2023/09/29 03:46:00;;;;;;;15.80;3.70;;;16.50;99.90;;;;;;6127207;23;20383;-94
2023/09/29 03:48:26;;;;;;;12.43;3.40;;;16.50;99.90;;;;;;6151241;23;20452;-93
2023/09/29 03:50:52;;;;;;;12.52;3.17;;;16.50;99.90;;;;;;6151208;23;20401;-92
2023/09/29 03:53:18;;;;;;;14.00;3.60;;;16.60;99.90;;;;;;6151002;23;20376;-94
2023/09/29 03:55:44;;;;;;;14.68;3.53;;;16.90;99.90;;;;;;6150843;23;20396;-95
2023/09/29 03:58:11;;;;;;;14.73;3.47;;;16.70;99.90;;;;;;6151153;23;20370;-93
2023/09/29 04:00:36;;;;;;;12.52;3.38;;;16.80;99.90;;;;;;6151078;23;20954;-92
2023/09/29 04:03:02;;;;;;;18.23;3.65;;;16.70;99.90;;;;;;6151921;23;20415;-93
2023/09/29 04:05:28;;;;;;;16.23;3.95;;;16.60;99.90;;;;;;6150975;23;20457;-91
2023/09/29 04:07:54;;;;;;;13.20;3.67;;;16.90;99.90;;;;;;6151348;23;20405;-92
2023/09/29 04:10:20;;;;;;;15.93;4.50;;;17.20;99.90;;;;;;6126634;23;20911;-92
2023/09/29 04:12:47;;;;;;;15.02;4.00;;;16.70;99.90;;;;;;6151722;23;20382;-94
2023/09/29 04:15:13;;;;;;;12.93;3.90;;;17.00;99.90;;;;;;6150589;23;20921;-93
2023/09/29 04:17:39;;;;;;;13.18;3.63;;;16.90;99.90;;;;;;6150718;23;20374;-92
2023/09/29 04:20:06;;;;;;;13.07;3.70;;;17.10;99.90;;;;;;6151227;23;20409;-94
2023/09/29 04:22:33;;;;;;;14.30;3.88;;;16.70;99.90;;;;;;6150445;23;20368;-94
2023/09/29 04:25:01;;;;;;;14.07;3.97;;;16.70;99.90;;;;;;6126361;23;20373;-94
2023/09/29 04:27:27;;;;;;;13.23;3.45;;;16.70;99.90;;;;;;6150726;23;20370;-93
2023/09/29 04:29:53;;;;;;;14.52;3.83;;;16.80;99.90;;;;;;6150777;23;20421;-93
2023/09/29 04:32:19;;;;;;;11.80;3.47;;;16.80;99.90;;;;;;6151353;23;20448;-92
2023/09/29 04:34:45;;;;;;;13.57;3.50;;;17.30;99.90;;;;;;6150908;23;20374;-93
2023/09/29 04:37:10;;;;;;;13.07;3.00;;;16.80;99.90;;;;;;6150908;23;20404;-93
2023/09/29 04:39:37;;;;;;;12.38;3.60;;;16.90;99.90;;;;;;6150175;23;20854;-92
2023/09/29 04:42:04;;;;;;;10.73;3.67;;;17.20;99.90;;;;;;6151501;23;20381;-93
2023/09/29 04:44:33;;;;;;;13.07;3.10;;;16.90;99.90;;;;;;6150667;23;20934;-93
2023/09/29 04:47:00;;;;;;;13.10;3.67;;;16.90;99.90;;;;;;6151415;23;20377;-94
2023/09/29 04:49:25;;;;;;;12.75;3.80;;;16.90;99.90;;;;;;6126432;23;20495;-94
2023/09/29 04:51:51;;;;;;;13.90;3.40;;;17.10;99.90;;;;;;6153001;23;20400;-95
2023/09/29 04:54:17;;;;;;;13.32;3.22;;;17.00;99.90;;;;;;6152847;23;20401;-94
2023/09/29 04:56:42;;;;;;;13.83;3.33;;;17.10;99.90;;;;;;6151655;23;20370;-93
2023/09/29 04:59:08;;;;;;;12.50;3.13;;;17.10;99.90;;;;;;6152860;23;20397;-93
2023/09/29 05:01:36;;;;;;;11.88;3.22;;;17.10;99.90;;;;;;6152397;23;20938;-93
2023/09/29 05:04:02;;;;;;;13.00;3.13;;;17.60;99.90;;;;;;6128808;23;20404;-94
2023/09/29 05:06:29;;;;;;;13.75;3.55;;;17.50;99.90;;;;;;6127943;23;20376;-93
2023/09/29 05:08:55;;;;;;;11.35;3.10;;;17.40;99.90;;;;;;6152074;23;20376;-93
2023/09/29 05:11:26;;;;;;;12.97;3.90;;;17.30;99.90;;;;;;6152241;23;20401;-93
2023/09/29 05:13:52;;;;;;;13.27;4.10;;;17.30;99.90;;;;;;6151860;23;20938;-90
2023/09/29 05:16:19;;;;;;;14.15;4.28;;;17.40;99.90;;;;;;6152471;23;20377;-92
2023/09/29 05:18:45;;;;;;;13.88;4.25;;;17.10;99.90;;;;;;6152391;23;20456;-91
2023/09/29 05:21:11;;;;;;;14.15;4.35;;;17.40;99.90;;;;;;6153228;23;20676;-93
2023/09/29 05:23:38;;;;;;;15.43;4.90;;;17.40;99.90;;;;;;6151532;23;20377;-93
2023/09/29 05:26:07;;;;;;;17.77;4.93;;;17.00;99.90;;;;;;6128244;23;20464;-92
2023/09/29 05:28:39;;;;;;;15.25;4.72;;;17.00;99.90;;;;;;6152062;23;20384;-93
2023/09/29 05:31:05;;;;;;;14.52;4.60;;;17.00;99.90;;;;;;6126972;23;20399;-91
2023/09/29 05:33:31;;;;;;;12.98;4.47;;;17.00;99.90;;;;;;6152262;23;20392;-93
2023/09/29 05:35:57;;;;;;;13.90;4.82;;;17.00;99.90;;;;;;6152371;23;20819;-92
2023/09/29 05:38:23;;;;;;;15.57;5.35;;;16.90;99.90;;;;;;6153535;23;20369;-92
2023/09/29 05:40:50;;;;;;;14.75;4.90;;;16.90;99.90;;;;;;6152035;23;20374;-93
2023/09/29 05:43:16;;;;;;;14.27;5.03;;;17.30;99.90;;;;;;6151522;23;20365;-95
2023/09/29 05:45:42;;;;;;;15.73;4.80;;;16.90;99.90;;;;;;6152400;23;20373;-93
2023/09/29 05:48:08;;;;;;;15.63;4.93;;;16.60;99.90;;;;;;6127746;23;20421;-93
2023/09/29 05:50:34;;;;;;;16.40;5.03;;;17.20;99.90;;;;;;6127837;23;20402;-92
2023/09/29 05:53:00;;;;;;;15.40;4.63;;;16.90;99.90;;;;;;6151408;23;20381;-92
2023/09/29 05:55:26;;;;;;;18.70;6.10;;;17.30;99.90;;;;;;6152890;23;20384;-93
2023/09/29 05:57:52;;;;;;;15.13;5.60;;;17.40;99.90;;;;;;6151475;23;20441;-92
2023/09/29 06:00:18;;;;;;;17.92;5.85;;;17.30;99.90;;;;;;6152504;23;20401;-93
2023/09/29 06:02:44;;;;;;;17.85;6.53;;;16.80;99.90;;;;;;6152156;23;20365;-93
2023/09/29 06:05:10;;;;;;;17.63;6.68;;;16.90;99.90;;;;;;6152259;23;20684;-94
2023/09/29 06:07:36;;;;;;;21.10;7.03;;;16.80;99.90;;;;;;6151538;23;20365;-93
2023/09/29 06:10:04;;;;;;;15.85;6.80;;;17.00;99.90;;;;;;6151411;23;20909;-92
2023/09/29 06:12:29;;;;;;;19.20;6.17;;;16.70;99.90;;;;;;6152320;23;20401;-92
2023/09/29 06:14:56;;;;;;;16.90;7.13;;;17.10;99.90;;;;;;6151939;23;20375;-92
2023/09/29 06:17:22;;;;;;;17.17;6.60;;;17.00;99.90;;;;;;6127864;23;20380;-92
2023/09/29 06:19:51;;;;;;;17.77;6.80;;;16.90;99.90;;;;;;6152613;23;20401;-91
2023/09/29 06:22:17;;;;;;;15.90;7.18;;;16.70;99.90;;;;;;6152158;23;20373;-91
2023/09/29 06:24:44;;;;;;;15.35;6.65;;;16.70;99.90;;;;;;6152037;23;20380;-92
2023/09/29 06:27:13;;;;;;;16.02;5.93;;;17.00;99.90;;;;;;6152049;23;20374;-93
2023/09/29 06:29:39;;;;;;;15.13;6.20;;;17.20;99.90;;;;;;6153190;23;20401;-91
2023/09/29 06:32:06;;;;;;;15.82;6.45;;;16.70;99.90;;;;;;6151791;23;20369;-93
2023/09/29 06:34:32;;;;;;;14.82;6.47;;;17.00;99.90;;;;;;6152330;23;20511;-93
2023/09/29 06:36:57;;;;;;;15.35;6.32;;;16.70;99.90;;;;;;6126884;23;20373;-93
2023/09/29 06:39:23;;;;;;;17.02;6.90;;;16.70;99.90;;;;;;6152571;23;20827;-94
2023/09/29 06:41:49;;;;;;;16.70;7.63;;;16.70;99.90;;;;;;6151949;23;20384;-93
2023/09/29 06:44:14;;;;;;;15.40;6.57;;;16.80;99.90;;;;;;6151744;23;20452;-93
2023/09/29 06:46:40;;;;;;;16.77;7.33;;;17.20;99.90;;;;;;6154205;23;20485;-94
2023/09/29 06:49:07;;;;;;;14.57;6.43;;;17.10;99.90;;;;;;6151204;23;20381;-94
2023/09/29 06:51:34;;;;;;;15.18;7.45;;;17.20;99.90;;;;;;6126932;23;20431;-92
2023/09/29 06:53:59;;;;;;;16.90;6.50;;;17.20;99.90;;;;;;6151028;23;20365;-94
2023/09/29 06:56:25;;;;;;;20.80;7.43;;;16.90;99.90;;;;;;6151900;23;20464;-94
2023/09/29 06:58:51;;;;;;;14.57;6.63;;;17.30;99.90;;;;;;6151268;23;20377;-94
2023/09/29 07:01:17;;;;;;;16.13;7.13;;;17.40;99.90;;;;;;6127098;23;20392;-93
2023/09/29 07:03:45;;;;;;;13.23;6.87;;;17.30;99.90;;;;;;6152237;23;20392;-94
2023/09/29 07:06:11;;;;;;;11.88;6.40;;;17.10;99.90;;;;;;6151349;23;20677;-94
2023/09/29 07:08:36;;;;;;;15.48;7.20;;;17.10;99.90;;;;;;6151291;23;20376;-94
2023/09/29 07:11:02;;;;;;;12.83;5.83;;;17.20;99.90;;;;;;6153114;23;20405;-93
2023/09/29 07:13:28;;;;;;;14.48;6.72;;;17.60;99.90;;;;;;6152080;23;21397;-94
2023/09/29 07:15:53;;;;;;;13.40;5.70;;;17.70;99.90;;;;;;6150831;23;20929;-94
2023/09/29 07:18:21;;;;;;;11.43;5.45;;;17.40;99.90;;;;;;6127463;23;20463;-94
2023/09/29 07:20:50;;;;;;;12.85;5.75;;;17.80;99.90;;;;;;6150884;23;20374;-95
2023/09/29 07:23:16;;;;;;;11.27;5.65;;;17.90;99.90;;;;;;6151185;23;20369;-93
2023/09/29 07:25:42;;;;;;;13.63;5.40;;;17.90;99.90;;;;;;6151283;23;20384;-92
2023/09/29 07:28:16;;;;;;;12.83;5.60;;;17.60;99.90;;;;;;6150755;23;20369;-94
2023/09/29 07:30:42;;;;;;;11.82;5.50;;;17.50;99.90;;;;;;6151317;23;20393;-93
2023/09/29 07:33:11;;;;;;;11.20;4.32;;;17.90;99.90;;;;;;6150317;23;20396;-93
2023/09/29 07:35:37;;;;;;;10.27;4.53;;;17.90;99.90;;;;;;6151551;23;20846;-93
2023/09/29 07:38:03;;;;;;;9.57;4.38;;;17.90;99.90;;;;;;6150287;23;20365;-93
2023/09/29 07:40:29;;;;;;;12.07;4.50;;;18.10;99.90;;;;;;6151052;23;20393;-93
2023/09/29 07:42:55;;;;;;;10.70;4.55;;;18.30;99.90;;;;;;6151366;23;20389;-93
2023/09/29 07:45:21;;;;;;;8.73;4.00;;;18.60;99.90;;;;;;6150704;23;20366;-92
2023/09/29 07:47:47;;;;;;;9.13;3.88;;;18.30;99.90;;;;;;6150957;23;20369;-93
2023/09/29 07:50:13;;;;;;;8.68;3.90;;;18.70;99.90;;;;;;6150338;23;20397;-94
2023/09/29 07:52:39;;;;;;;9.02;3.95;;;18.90;99.90;;;;;;6126868;23;21145;-91
2023/09/29 07:55:09;;;;;;;7.72;4.20;;;18.60;99.90;;;;;;6150477;23;20710;-93
2023/09/29 07:57:35;;;;;;;9.00;4.05;;;18.70;99.90;;;;;;6151033;23;20995;-95
2023/09/29 08:00:01;;;;;;;10.02;4.05;;;19.10;99.90;;;;;;6150961;23;20501;-93
2023/09/29 08:02:27;;;;;;;5.82;3.22;;;18.80;99.90;;;;;;6150520;23;20833;-95
2023/09/29 08:04:53;;;;;;;9.00;3.60;;;18.90;99.90;;;;;;6150690;23;20374;-96
2023/09/29 08:07:19;;;;;;;8.07;3.47;;;19.20;99.90;;;;;;6151549;23;20381;-94
2023/09/29 08:09:48;;;;;;;7.95;3.70;;;19.00;99.90;;;;;;6126377;23;20448;-94
2023/09/29 08:12:14;;;;;;;6.85;3.78;;;19.40;99.90;;;;;;6150402;23;20392;-93
2023/09/29 08:14:40;;;;;;;9.13;3.60;;;19.40;99.90;;;;;;6127116;23;20377;-94
2023/09/29 08:17:06;;;;;;;9.45;3.72;;;19.40;99.90;;;;;;6151450;23;20463;-92
2023/09/29 08:19:33;;;;;;;7.93;3.43;;;19.20;99.90;;;;;;6126506;23;20473;-95
2023/09/29 08:21:59;;;;;;;7.32;3.72;;;19.90;99.90;;;;;;6126745;23;20489;-94
2023/09/29 08:24:25;;;;;;;7.30;4.25;;;19.20;99.90;;;;;;6150328;23;20425;-95
2023/09/29 08:26:51;;;;;;;7.70;3.80;;;19.10;99.90;;;;;;6151020;23;20901;-94
2023/09/29 08:29:16;;;;;;;7.20;4.32;;;19.30;99.90;;;;;;6150829;23;20369;-92
2023/09/29 08:31:43;;;;;;;7.33;4.37;;;19.50;99.90;;;;;;6151285;23;20453;-93
2023/09/29 08:34:09;;;;;;;8.18;4.95;;;19.80;99.90;;;;;;6150391;23;20739;-95
2023/09/29 08:36:35;;;;;;;10.18;4.45;;;19.60;99.90;;;;;;6150985;23;20381;-94
2023/09/29 08:39:01;;;;;;;7.97;4.20;;;19.50;99.90;;;;;;6150540;23;20396;-93
2023/09/29 08:41:28;;;;;;;10.88;4.53;;;19.70;99.90;;;;;;6152294;23;20364;-93
2023/09/29 08:43:54;;;;;;;8.48;4.60;;;19.40;99.90;;;;;;6150756;23;20484;-93
2023/09/29 08:46:23;;;;;;;9.68;4.55;;;19.60;99.90;;;;;;6151060;23;20393;-94
2023/09/29 08:48:50;;;;;;;9.68;5.03;;;20.00;99.90;;;;;;6153466;23;20401;-95
2023/09/29 08:51:17;;;;;;;9.40;5.33;;;19.70;99.90;;;;;;6151286;23;20404;-92
2023/09/29 08:53:44;;;;;;;10.30;5.63;;;19.70;99.90;;;;;;6152078;23;20401;-94
2023/09/29 08:56:15;;;;;;;12.25;5.50;;;19.70;99.90;;;;;;6150216;23;20374;-92
2023/09/29 08:58:42;;;;;;;10.30;5.70;;;19.70;99.90;;;;;;6151173;23;20384;-94
2023/09/29 09:01:08;;;;;;;11.48;6.38;;;19.70;99.90;;;;;;6150815;23;20366;-94
2023/09/29 09:03:34;;;;;;;11.90;6.57;;;19.50;99.90;;;;;;6150825;23;20392;-93
2023/09/29 09:06:01;;;;;;;11.40;6.32;;;20.30;99.90;;;;;;6127440;23;20478;-94
2023/09/29 09:08:27;;;;;;;11.60;6.60;;;20.20;99.90;;;;;;6151883;23;20375;-94
2023/09/29 09:10:58;;;;;;;11.70;7.07;;;20.60;99.90;;;;;;6150936;23;20464;-95
2023/09/29 09:13:26;;;;;;;14.50;7.10;;;20.30;99.90;;;;;;6125231;23;20418;-89
2023/09/29 09:15:58;;;;;;;13.30;8.15;;;20.40;99.90;;;;;;6149916;23;20366;-89
2023/09/29 09:18:28;;;;;;;13.90;7.88;;;20.40;99.90;;;;;;6125631;23;20388;-88
2023/09/29 09:20:55;;;;;;;14.02;8.27;;;20.70;99.90;;;;;;6149471;23;20703;-90
2023/09/29 09:23:21;;;;;;;13.48;6.75;;;20.60;99.90;;;;;;6125826;23;20421;-91
2023/09/29 09:25:47;;;;;;;13.90;7.00;;;20.80;99.90;;;;;;6148606;23;20405;-89
2023/09/29 09:28:22;;;;;;;12.68;6.43;;;20.80;99.90;;;;;;6150237;23;20703;-89
2023/09/29 09:30:59;;;;;;;11.00;5.88;;;21.00;99.90;;;;;;6149835;23;20397;-91
2023/09/29 09:33:27;;;;;;;10.48;5.30;;;21.10;99.90;;;;;;6125661;23;20377;-91
2023/09/29 09:36:06;;;;;;;8.95;4.30;;;20.90;99.90;;;;;;6149526;23;20372;-90
2023/09/29 09:38:33;;;;;;;9.60;4.40;;;21.10;99.90;;;;;;6150968;23;20868;-92
2023/09/29 09:41:00;;;;;;;8.27;3.53;;;21.20;99.90;;;;;;6151308;23;20372;-89
2023/09/29 09:43:29;;;;;;;9.25;3.72;;;21.20;99.90;;;;;;6151135;23;20369;-91
2023/09/29 09:46:05;;;;;;;8.23;3.20;;;21.50;99.90;;;;;;6128247;23;20404;-90
2023/09/29 09:48:54;;;;;;;8.52;2.83;;;21.20;99.90;;;;;;6150051;23;20408;-92
2023/09/29 09:51:47;;;;;;;6.20;2.95;;;21.30;99.90;;;;;;6149437;23;20401;-90
2023/09/29 09:54:19;;;;;;;7.18;2.78;;;21.30;99.90;;;;;;6145377;23;20412;-91
2023/09/29 09:57:00;;;;;;;5.87;2.63;;;21.20;99.90;;;;;;6149557;23;20369;-91
2023/09/29 09:59:27;;;;;;;6.65;2.63;;;21.10;99.90;;;;;;6149979;23;20384;-94
2023/09/29 10:01:55;;;;;;;7.70;2.70;;;21.10;99.90;;;;;;6150545;23;20373;-91
2023/09/29 10:04:24;;;;;;;6.13;2.57;;;21.00;99.90;;;;;;6150018;23;20365;-90
2023/09/29 10:06:51;;;;;;;7.38;2.45;;;21.10;99.90;;;;;;6125978;23;20384;-93
2023/09/29 10:09:16;;;;;;;6.83;2.80;;;21.30;99.90;;;;;;6125631;23;20397;-90
2023/09/29 10:11:42;;;;;;;6.65;2.75;;;21.10;99.90;;;;;;6150771;23;20393;-90
2023/09/29 10:14:09;;;;;;;6.93;2.92;;;21.10;99.90;;;;;;6149773;23;20395;-90
2023/09/29 10:16:35;;;;;;;7.15;2.72;;;20.70;99.90;;;;;;6151323;23;20797;-90
2023/09/29 10:19:16;;;;;;;7.47;3.20;;;20.50;99.90;;;;;;6150972;23;20374;-90
2023/09/29 10:21:49;;;;;;;7.60;2.60;;;20.60;99.90;;;;;;6150644;23;20831;-91
2023/09/29 10:24:28;;;;;;;6.75;2.92;;;20.70;99.90;;;;;;6151643;23;20504;-91
2023/09/29 10:26:53;;;;;;;9.27;2.78;;;20.80;99.90;;;;;;6149610;23;20385;-94
2023/09/29 10:29:20;;;;;;;7.65;2.90;;;20.90;99.90;;;;;;6151707;23;20366;-89
2023/09/29 10:31:48;;;;;;;7.80;3.07;;;21.00;99.90;;;;;;6151916;23;20452;-89
2023/09/29 10:34:21;;;;;;;7.90;2.90;;;21.00;99.90;;;;;;6152354;23;20437;-94
2023/09/29 10:36:54;;;;;;;7.72;2.80;;;20.80;99.90;;;;;;6127124;23;20486;-91
2023/09/29 10:39:27;;;;;;;6.90;3.17;;;20.80;99.90;;;;;;6151255;23;20723;-93
2023/09/29 10:42:15;;;;;;;6.95;2.80;;;20.80;99.90;;;;;;6127356;23;20830;-92
2023/09/29 10:44:44;;;;;;;6.55;2.50;;;20.90;99.90;;;;;;6126611;23;20378;-92
2023/09/29 10:47:13;;;;;;;6.47;3.10;;;20.90;99.90;;;;;;6152020;23;20431;-90
2023/09/29 10:49:45;;;;;;;6.05;2.70;;;20.80;99.90;;;;;;6151287;23;20870;-93
2023/09/29 10:52:22;;;;;;;6.87;2.50;;;20.80;99.90;;;;;;6150815;23;20450;-91
2023/09/29 10:54:56;;;;;;;8.13;3.43;;;20.80;99.90;;;;;;6151570;23;20369;-90
2023/09/29 10:57:22;;;;;;;7.40;3.10;;;20.80;99.90;;;;;;6151900;23;20443;-93
2023/09/29 10:59:48;;;;;;;7.77;3.40;;;21.00;99.90;;;;;;6152022;23;20373;-95
2023/09/29 11:02:15;;;;;;;7.15;3.58;;;20.60;99.90;;;;;;6150893;23;20766;-89
2023/09/29 11:04:45;;;;;;;7.78;3.72;;;20.90;99.90;;;;;;6150656;23;20373;-89
2023/09/29 11:07:10;;;;;;;9.63;3.88;;;21.00;99.90;;;;;;6125677;23;20369;-90
2023/09/29 11:09:38;;;;;;;7.47;3.97;;;20.90;99.90;;;;;;6125138;23;20373;-90
2023/09/29 11:12:04;;;;;;;8.25;4.05;;;20.70;99.90;;;;;;6150680;23;20388;-90
2023/09/29 11:14:38;;;;;;;9.05;4.18;;;20.70;99.90;;;;;;6149298;23;20762;-89
2023/09/29 11:17:04;;;;;;;7.07;3.60;;;20.70;99.90;;;;;;6149879;23;20863;-90
2023/09/29 11:19:32;;;;;;;7.47;4.20;;;21.00;99.90;;;;;;6149760;23;20382;-91
2023/09/29 11:22:02;;;;;;;8.13;4.30;;;20.80;99.90;;;;;;6150099;23;20752;-90
2023/09/29 11:24:40;;;;;;;8.90;4.32;;;21.10;99.90;;;;;;6174775;23;20365;-89
2023/09/29 11:27:06;;;;;;;7.35;4.72;;;20.60;99.90;;;;;;6149634;23;20374;-90
2023/09/29 11:29:34;;;;;;;9.53;4.50;;;20.70;99.90;;;;;;6150072;23;21002;-89
2023/09/29 11:32:00;;;;;;;8.65;4.70;;;21.20;99.90;;;;;;6125248;23;21052;-90
2023/09/29 11:34:29;;;;;;;8.73;4.53;;;20.70;99.90;;;;;;6150299;23;20369;-91
2023/09/29 11:36:55;;;;;;;9.27;4.67;;;21.10;99.90;;;;;;6149500;23;20369;-91
2023/09/29 11:39:22;;;;;;;3.97;0.90;;;21.10;99.90;;;;;;6150653;23;20376;-93
2023/09/29 11:41:48;;;;;;;2.67;0.57;;;20.50;99.90;;;;;;6150024;23;20766;-90
2023/09/29 11:44:17;;;;;;;2.43;0.60;;;21.00;99.90;;;;;;6150107;23;20706;-91
2023/09/29 11:46:44;;;;;;;2.95;0.40;;;19.80;99.90;;;;;;6150514;23;20416;-91
2023/09/29 11:49:10;;;;;;;2.28;0.30;;;19.80;99.90;;;;;;6149134;23;20813;-90
2023/09/29 11:51:36;;;;;;;2.40;0.30;;;19.60;99.90;;;;;;6126071;23;20389;-89
2023/09/29 11:54:03;;;;;;;3.30;0.40;;;19.10;99.90;;;;;;6149599;23;20414;-90
2023/09/29 11:56:28;;;;;;;3.83;0.52;;;19.10;99.90;;;;;;6150348;23;20377;-92
2023/09/29 11:58:54;;;;;;;3.83;0.50;;;19.30;99.90;;;;;;6149400;23;20373;-90
2023/09/29 12:01:20;;;;;;;4.40;0.70;;;18.80;99.90;;;;;;6128287;23;20476;-93
2023/09/29 12:03:50;;;;;;;4.22;0.90;;;19.20;99.90;;;;;;6176635;23;20723;-93
2023/09/29 12:06:15;;;;;;;5.38;1.20;;;18.20;99.90;;;;;;6151313;23;20708;-94
2023/09/29 12:08:41;;;;;;;7.10;1.23;;;18.60;99.90;;;;;;6153092;23;20381;-93
2023/09/29 12:11:07;;;;;;;6.80;1.88;;;18.10;99.90;;;;;;6151307;23;20401;-92
2023/09/29 12:13:33;;;;;;;6.47;1.70;;;18.50;99.90;;;;;;6152185;23;20380;-93
2023/09/29 12:15:59;;;;;;;7.07;1.88;;;17.90;99.90;;;;;;6151208;23;20401;-92
2023/09/29 12:18:28;;;;;;;5.80;1.10;;;18.10;99.90;;;;;;6126569;23;20425;-90
2023/09/29 12:20:56;;;;;;;5.32;1.40;;;18.00;99.90;;;;;;6149716;23;20409;-90
2023/09/29 12:23:22;;;;;;;8.00;1.13;;;18.20;99.90;;;;;;6148709;23;20377;-89
2023/09/29 12:25:47;;;;;;;7.25;1.30;;;18.00;99.90;;;;;;6125851;23;20392;-89
2023/09/29 12:28:14;;;;;;;6.77;1.10;;;17.80;99.90;;;;;;6125280;23;20859;-93
2023/09/29 12:30:43;;;;;;;5.65;0.95;;;17.70;99.90;;;;;;6126705;23;20405;-92
2023/09/29 12:33:10;;;;;;;6.50;0.90;;;17.90;99.90;;;;;;6125888;23;20456;-91
2023/09/29 12:35:36;;;;;;;6.47;1.10;;;18.30;99.90;;;;;;6151279;23;20443;-92
2023/09/29 12:38:02;;;;;;;6.97;0.60;;;17.80;99.90;;;;;;6151038;23;20985;-91
2023/09/29 12:40:27;;;;;;;6.18;0.80;;;17.90;99.90;;;;;;6150738;23;20441;-90